sensor_id;sensor_type;location;lat;lon;timestamp;pressure;altitude;pressure_sealevel;temperature
15701;BMP180;7950;42.744;23.174;2023-11-21T00:00:15;94207.75;;;3.13
15701;BMP180;7950;42.744;23.174;2023-11-21T00:02:45;94201.00;;;3.12
15701;BMP180;7950;42.744;23.174;2023-11-21T00:05:14;94197.34;;;3.19
15701;BMP180;7950;42.744;23.174;2023-11-21T00:07:45;94202.13;;;3.16
15701;BMP180;7950;42.744;23.174;2023-11-21T00:10:14;94196.53;;;3.19
15701;BMP180;7950;42.744;23.174;2023-11-21T00:12:43;94198.00;;;3.08
15701;BMP180;7950;42.744;23.174;2023-11-21T00:15:12;94203.00;;;3.10
15701;BMP180;7950;42.744;23.174;2023-11-21T00:17:41;94199.38;;;3.11
15701;BMP180;7950;42.744;23.174;2023-11-21T00:20:11;94196.97;;;3.16
15701;BMP180;7950;42.744;23.174;2023-11-21T00:22:41;94196.91;;;3.22
15701;BMP180;7950;42.744;23.174;2023-11-21T00:25:12;94182.13;;;3.29
15701;BMP180;7950;42.744;23.174;2023-11-21T00:27:42;94197.88;;;3.28
15701;BMP180;7950;42.744;23.174;2023-11-21T00:30:13;94195.28;;;3.28
15701;BMP180;7950;42.744;23.174;2023-11-21T00:32:42;94203.09;;;3.21
15701;BMP180;7950;42.744;23.174;2023-11-21T00:35:11;94192.59;;;3.16
15701;BMP180;7950;42.744;23.174;2023-11-21T00:37:39;94200.31;;;3.23
15701;BMP180;7950;42.744;23.174;2023-11-21T00:40:11;94191.69;;;3.29
15701;BMP180;7950;42.744;23.174;2023-11-21T00:42:42;94205.09;;;3.26
15701;BMP180;7950;42.744;23.174;2023-11-21T00:45:11;94204.47;;;3.24
15701;BMP180;7950;42.744;23.174;2023-11-21T00:47:40;94191.31;;;3.25
15701;BMP180;7950;42.744;23.174;2023-11-21T00:50:10;94184.34;;;3.26
15701;BMP180;7950;42.744;23.174;2023-11-21T00:52:38;94188.19;;;3.17
15701;BMP180;7950;42.744;23.174;2023-11-21T00:55:08;94185.94;;;3.27
15701;BMP180;7950;42.744;23.174;2023-11-21T00:57:40;94184.72;;;3.29
15701;BMP180;7950;42.744;23.174;2023-11-21T01:00:11;94176.53;;;3.32
15701;BMP180;7950;42.744;23.174;2023-11-21T01:02:44;94174.69;;;3.33
15701;BMP180;7950;42.744;23.174;2023-11-21T01:05:14;94173.88;;;3.39
15701;BMP180;7950;42.744;23.174;2023-11-21T01:07:42;94175.66;;;3.38
15701;BMP180;7950;42.744;23.174;2023-11-21T01:10:11;94175.19;;;3.48
15701;BMP180;7950;42.744;23.174;2023-11-21T01:12:41;94169.41;;;3.46
15701;BMP180;7950;42.744;23.174;2023-11-21T01:15:10;94172.22;;;3.44
15701;BMP180;7950;42.744;23.174;2023-11-21T01:17:40;94179.22;;;3.44
15701;BMP180;7950;42.744;23.174;2023-11-21T01:20:11;94181.97;;;3.49
15701;BMP180;7950;42.744;23.174;2023-11-21T01:22:41;94182.44;;;3.39
15701;BMP180;7950;42.744;23.174;2023-11-21T01:25:10;94181.22;;;3.42
15701;BMP180;7950;42.744;23.174;2023-11-21T01:27:43;94172.06;;;3.39
15701;BMP180;7950;42.744;23.174;2023-11-21T01:30:12;94178.09;;;3.33
15701;BMP180;7950;42.744;23.174;2023-11-21T01:32:41;94184.16;;;3.27
15701;BMP180;7950;42.744;23.174;2023-11-21T01:35:10;94189.38;;;3.21
15701;BMP180;7950;42.744;23.174;2023-11-21T01:37:39;94191.78;;;3.16
15701;BMP180;7950;42.744;23.174;2023-11-21T01:40:09;94184.19;;;3.21
15701;BMP180;7950;42.744;23.174;2023-11-21T01:42:43;94174.44;;;3.16
15701;BMP180;7950;42.744;23.174;2023-11-21T01:45:12;94168.28;;;3.11
15701;BMP180;7950;42.744;23.174;2023-11-21T01:47:42;94167.97;;;3.01
15701;BMP180;7950;42.744;23.174;2023-11-21T01:50:16;94169.06;;;2.87
15701;BMP180;7950;42.744;23.174;2023-11-21T01:52:46;94168.41;;;2.91
15701;BMP180;7950;42.744;23.174;2023-11-21T01:55:17;94170.41;;;2.96
15701;BMP180;7950;42.744;23.174;2023-11-21T01:57:56;94175.53;;;3.02
15701;BMP180;7950;42.744;23.174;2023-11-21T02:00:25;94177.56;;;2.94
15701;BMP180;7950;42.744;23.174;2023-11-21T02:02:57;94181.97;;;2.93
15701;BMP180;7950;42.744;23.174;2023-11-21T02:05:27;94179.19;;;2.95
15701;BMP180;7950;42.744;23.174;2023-11-21T02:07:57;94181.13;;;2.99
15701;BMP180;7950;42.744;23.174;2023-11-21T02:10:26;94178.97;;;2.96
15701;BMP180;7950;42.744;23.174;2023-11-21T02:12:56;94180.34;;;2.99
15701;BMP180;7950;42.744;23.174;2023-11-21T02:15:25;94175.06;;;2.87
15701;BMP180;7950;42.744;23.174;2023-11-21T02:17:56;94172.16;;;3.02
15701;BMP180;7950;42.744;23.174;2023-11-21T02:20:26;94179.75;;;2.97
15701;BMP180;7950;42.744;23.174;2023-11-21T02:22:58;94174.81;;;2.89
15701;BMP180;7950;42.744;23.174;2023-11-21T02:25:29;94177.19;;;2.90
15701;BMP180;7950;42.744;23.174;2023-11-21T02:28:01;94169.91;;;2.81
15701;BMP180;7950;42.744;23.174;2023-11-21T02:30:30;94162.25;;;2.92
15701;BMP180;7950;42.744;23.174;2023-11-21T02:33:00;94164.03;;;2.92
15701;BMP180;7950;42.744;23.174;2023-11-21T02:35:30;94172.09;;;2.77
15701;BMP180;7950;42.744;23.174;2023-11-21T02:38:01;94163.16;;;2.73
15701;BMP180;7950;42.744;23.174;2023-11-21T02:40:30;94163.03;;;2.62
15701;BMP180;7950;42.744;23.174;2023-11-21T02:42:58;94165.63;;;2.62
15701;BMP180;7950;42.744;23.174;2023-11-21T02:45:27;94151.84;;;2.68
15701;BMP180;7950;42.744;23.174;2023-11-21T02:47:56;94172.38;;;2.63
15701;BMP180;7950;42.744;23.174;2023-11-21T02:50:26;94164.41;;;2.64
15701;BMP180;7950;42.744;23.174;2023-11-21T02:52:55;94152.88;;;2.60
15701;BMP180;7950;42.744;23.174;2023-11-21T02:55:29;94161.31;;;2.49
15701;BMP180;7950;42.744;23.174;2023-11-21T02:57:58;94158.28;;;2.59
15701;BMP180;7950;42.744;23.174;2023-11-21T03:00:26;94159.91;;;2.53
15701;BMP180;7950;42.744;23.174;2023-11-21T03:02:56;94152.94;;;2.47
15701;BMP180;7950;42.744;23.174;2023-11-21T03:05:25;94145.59;;;2.44
15701;BMP180;7950;42.744;23.174;2023-11-21T03:07:56;94152.31;;;2.52
15701;BMP180;7950;42.744;23.174;2023-11-21T03:10:25;94155.78;;;2.39
15701;BMP180;7950;42.744;23.174;2023-11-21T03:12:56;94163.09;;;2.49
15701;BMP180;7950;42.744;23.174;2023-11-21T03:15:25;94169.22;;;2.61
15701;BMP180;7950;42.744;23.174;2023-11-21T03:17:54;94161.28;;;2.56
15701;BMP180;7950;42.744;23.174;2023-11-21T03:20:24;94158.66;;;2.62
15701;BMP180;7950;42.744;23.174;2023-11-21T03:22:53;94162.41;;;2.66
15701;BMP180;7950;42.744;23.174;2023-11-21T03:25:21;94168.59;;;2.65
15701;BMP180;7950;42.744;23.174;2023-11-21T03:27:51;94168.97;;;2.69
15701;BMP180;7950;42.744;23.174;2023-11-21T03:30:22;94164.81;;;2.68
15701;BMP180;7950;42.744;23.174;2023-11-21T03:32:51;94171.41;;;2.64
15701;BMP180;7950;42.744;23.174;2023-11-21T03:35:20;94173.41;;;2.55
15701;BMP180;7950;42.744;23.174;2023-11-21T03:37:49;94156.63;;;2.64
15701;BMP180;7950;42.744;23.174;2023-11-21T03:40:18;94154.22;;;2.69
15701;BMP180;7950;42.744;23.174;2023-11-21T03:42:49;94147.00;;;2.78
15701;BMP180;7950;42.744;23.174;2023-11-21T03:45:18;94152.75;;;2.80
15701;BMP180;7950;42.744;23.174;2023-11-21T03:47:48;94145.78;;;2.80
15701;BMP180;7950;42.744;23.174;2023-11-21T03:50:16;94142.16;;;2.88
15701;BMP180;7950;42.744;23.174;2023-11-21T03:52:45;94139.00;;;2.86
15701;BMP180;7950;42.744;23.174;2023-11-21T03:55:14;94142.41;;;2.80
15701;BMP180;7950;42.744;23.174;2023-11-21T03:57:44;94134.59;;;2.86
15701;BMP180;7950;42.744;23.174;2023-11-21T04:00:13;94141.78;;;2.84
15701;BMP180;7950;42.744;23.174;2023-11-21T04:02:43;94134.66;;;2.73
15701;BMP180;7950;42.744;23.174;2023-11-21T04:05:13;94143.25;;;2.74
15701;BMP180;7950;42.744;23.174;2023-11-21T04:07:42;94143.41;;;2.79
15701;BMP180;7950;42.744;23.174;2023-11-21T04:10:11;94144.00;;;2.81
15701;BMP180;7950;42.744;23.174;2023-11-21T04:12:40;94142.59;;;2.78
15701;BMP180;7950;42.744;23.174;2023-11-21T04:15:10;94136.66;;;2.78
15701;BMP180;7950;42.744;23.174;2023-11-21T04:17:40;94151.19;;;2.79
15701;BMP180;7950;42.744;23.174;2023-11-21T04:20:10;94152.97;;;2.78
15701;BMP180;7950;42.744;23.174;2023-11-21T04:22:41;94148.19;;;2.82
15701;BMP180;7950;42.744;23.174;2023-11-21T04:25:14;94154.72;;;2.84
15701;BMP180;7950;42.744;23.174;2023-11-21T04:27:45;94155.50;;;2.85
15701;BMP180;7950;42.744;23.174;2023-11-21T04:30:14;94147.16;;;2.83
15701;BMP180;7950;42.744;23.174;2023-11-21T04:32:43;94152.56;;;2.81
15701;BMP180;7950;42.744;23.174;2023-11-21T04:35:12;94151.34;;;2.84
15701;BMP180;7950;42.744;23.174;2023-11-21T04:37:43;94154.41;;;2.74
15701;BMP180;7950;42.744;23.174;2023-11-21T04:40:12;94156.34;;;2.79
15701;BMP180;7950;42.744;23.174;2023-11-21T04:42:41;94146.88;;;2.66
15701;BMP180;7950;42.744;23.174;2023-11-21T04:45:10;94154.47;;;2.61
15701;BMP180;7950;42.744;23.174;2023-11-21T04:47:40;94157.81;;;2.68
15701;BMP180;7950;42.744;23.174;2023-11-21T04:50:10;94163.31;;;2.78
15701;BMP180;7950;42.744;23.174;2023-11-21T04:52:39;94152.59;;;2.75
15701;BMP180;7950;42.744;23.174;2023-11-21T04:55:10;94152.97;;;2.78
15701;BMP180;7950;42.744;23.174;2023-11-21T04:57:39;94157.56;;;2.76
15701;BMP180;7950;42.744;23.174;2023-11-21T05:00:10;94157.78;;;2.75
15701;BMP180;7950;42.744;23.174;2023-11-21T05:02:40;94165.72;;;2.80
15701;BMP180;7950;42.744;23.174;2023-11-21T05:05:11;94160.56;;;2.73
15701;BMP180;7950;42.744;23.174;2023-11-21T05:07:42;94154.44;;;2.68
15701;BMP180;7950;42.744;23.174;2023-11-21T05:10:12;94154.63;;;2.73
15701;BMP180;7950;42.744;23.174;2023-11-21T05:12:42;94146.06;;;2.66
15701;BMP180;7950;42.744;23.174;2023-11-21T05:15:14;94139.69;;;2.68
15701;BMP180;7950;42.744;23.174;2023-11-21T05:17:45;94152.03;;;2.73
15701;BMP180;7950;42.744;23.174;2023-11-21T05:20:15;94152.44;;;2.70
15701;BMP180;7950;42.744;23.174;2023-11-21T05:22:48;94151.00;;;2.74
15701;BMP180;7950;42.744;23.174;2023-11-21T05:25:18;94152.59;;;2.75
15701;BMP180;7950;42.744;23.174;2023-11-21T05:27:47;94166.97;;;2.71
15701;BMP180;7950;42.744;23.174;2023-11-21T05:30:16;94153.88;;;2.59
15701;BMP180;7950;42.744;23.174;2023-11-21T05:32:45;94155.66;;;2.65
15701;BMP180;7950;42.744;23.174;2023-11-21T05:35:15;94164.16;;;2.72
15701;BMP180;7950;42.744;23.174;2023-11-21T05:37:45;94164.53;;;2.76
15701;BMP180;7950;42.744;23.174;2023-11-21T05:40:15;94165.75;;;2.73
15701;BMP180;7950;42.744;23.174;2023-11-21T05:42:45;94160.13;;;2.83
15701;BMP180;7950;42.744;23.174;2023-11-21T05:45:15;94164.28;;;2.84
15701;BMP180;7950;42.744;23.174;2023-11-21T05:47:47;94156.97;;;2.81
15701;BMP180;7950;42.744;23.174;2023-11-21T05:50:17;94164.88;;;2.86
15701;BMP180;7950;42.744;23.174;2023-11-21T05:52:47;94165.47;;;2.88
15701;BMP180;7950;42.744;23.174;2023-11-21T05:55:16;94162.03;;;2.94
15701;BMP180;7950;42.744;23.174;2023-11-21T05:57:48;94146.44;;;3.00
15701;BMP180;7950;42.744;23.174;2023-11-21T06:00:17;94156.59;;;3.02
15701;BMP180;7950;42.744;23.174;2023-11-21T06:02:49;94157.97;;;3.04
15701;BMP180;7950;42.744;23.174;2023-11-21T06:05:22;94159.53;;;3.12
15701;BMP180;7950;42.744;23.174;2023-11-21T06:07:54;94161.47;;;3.16
15701;BMP180;7950;42.744;23.174;2023-11-21T06:10:24;94169.06;;;3.18
15701;BMP180;7950;42.744;23.174;2023-11-21T06:12:54;94176.63;;;3.19
15701;BMP180;7950;42.744;23.174;2023-11-21T06:15:30;94172.88;;;3.40
15701;BMP180;7950;42.744;23.174;2023-11-21T06:17:58;94170.78;;;3.48
15701;BMP180;7950;42.744;23.174;2023-11-21T06:20:27;94172.56;;;3.54
15701;BMP180;7950;42.744;23.174;2023-11-21T06:22:56;94187.91;;;3.56
15701;BMP180;7950;42.744;23.174;2023-11-21T06:25:25;94178.03;;;3.64
15701;BMP180;7950;42.744;23.174;2023-11-21T06:27:55;94174.66;;;3.82
15701;BMP180;7950;42.744;23.174;2023-11-21T06:30:25;94181.22;;;4.09
15701;BMP180;7950;42.744;23.174;2023-11-21T06:32:54;94186.41;;;4.27
15701;BMP180;7950;42.744;23.174;2023-11-21T06:35:23;94180.91;;;4.53
15701;BMP180;7950;42.744;23.174;2023-11-21T06:37:52;94180.38;;;4.62
15701;BMP180;7950;42.744;23.174;2023-11-21T06:40:21;94186.81;;;4.89
15701;BMP180;7950;42.744;23.174;2023-11-21T06:42:50;94184.66;;;5.27
15701;BMP180;7950;42.744;23.174;2023-11-21T06:45:20;94181.19;;;5.56
15701;BMP180;7950;42.744;23.174;2023-11-21T06:47:49;94184.63;;;5.80
15701;BMP180;7950;42.744;23.174;2023-11-21T06:50:18;94186.59;;;5.96
15701;BMP180;7950;42.744;23.174;2023-11-21T06:52:47;94187.47;;;6.24
15701;BMP180;7950;42.744;23.174;2023-11-21T06:55:16;94187.44;;;6.36
15701;BMP180;7950;42.744;23.174;2023-11-21T06:57:44;94193.31;;;6.31
15701;BMP180;7950;42.744;23.174;2023-11-21T07:00:17;94195.72;;;6.33
15701;BMP180;7950;42.744;23.174;2023-11-21T07:02:47;94189.59;;;6.16
15701;BMP180;7950;42.744;23.174;2023-11-21T07:05:17;94191.56;;;6.09
15701;BMP180;7950;42.744;23.174;2023-11-21T07:07:50;94187.59;;;6.18
15701;BMP180;7950;42.744;23.174;2023-11-21T07:10:21;94181.94;;;6.21
15701;BMP180;7950;42.744;23.174;2023-11-21T07:12:50;94179.31;;;6.09
15701;BMP180;7950;42.744;23.174;2023-11-21T07:15:19;94178.56;;;5.97
15701;BMP180;7950;42.744;23.174;2023-11-21T07:17:49;94185.63;;;5.67
15701;BMP180;7950;42.744;23.174;2023-11-21T07:20:18;94171.59;;;5.68
15701;BMP180;7950;42.744;23.174;2023-11-21T07:22:47;94191.06;;;5.66
15701;BMP180;7950;42.744;23.174;2023-11-21T07:25:15;94191.28;;;5.64
15701;BMP180;7950;42.744;23.174;2023-11-21T07:27:44;94193.13;;;5.75
15701;BMP180;7950;42.744;23.174;2023-11-21T07:30:14;94187.84;;;5.82
15701;BMP180;7950;42.744;23.174;2023-11-21T07:32:42;94178.88;;;6.01
15701;BMP180;7950;42.744;23.174;2023-11-21T07:35:15;94185.09;;;6.23
15701;BMP180;7950;42.744;23.174;2023-11-21T07:37:44;94186.19;;;6.38
15701;BMP180;7950;42.744;23.174;2023-11-21T07:40:15;94184.13;;;6.52
15701;BMP180;7950;42.744;23.174;2023-11-21T07:42:44;94182.41;;;6.57
15701;BMP180;7950;42.744;23.174;2023-11-21T07:45:12;94171.53;;;6.60
15701;BMP180;7950;42.744;23.174;2023-11-21T07:47:42;94169.81;;;6.66
15701;BMP180;7950;42.744;23.174;2023-11-21T07:50:11;94180.38;;;6.87
15701;BMP180;7950;42.744;23.174;2023-11-21T07:52:42;94169.44;;;7.02
15701;BMP180;7950;42.744;23.174;2023-11-21T07:55:11;94183.84;;;7.04
15701;BMP180;7950;42.744;23.174;2023-11-21T07:57:41;94168.34;;;7.14
15701;BMP180;7950;42.744;23.174;2023-11-21T08:00:11;94164.56;;;7.22
15701;BMP180;7950;42.744;23.174;2023-11-21T08:02:42;94160.81;;;7.29
15701;BMP180;7950;42.744;23.174;2023-11-21T08:05:13;94165.72;;;7.42
15701;BMP180;7950;42.744;23.174;2023-11-21T08:07:55;94150.84;;;7.59
15701;BMP180;7950;42.744;23.174;2023-11-21T08:10:24;94157.78;;;7.87
15701;BMP180;7950;42.744;23.174;2023-11-21T08:12:53;94159.50;;;8.14
15701;BMP180;7950;42.744;23.174;2023-11-21T08:15:22;94156.63;;;8.32
15701;BMP180;7950;42.744;23.174;2023-11-21T08:17:51;94164.59;;;8.21
15701;BMP180;7950;42.744;23.174;2023-11-21T08:20:21;94168.53;;;8.23
15701;BMP180;7950;42.744;23.174;2023-11-21T08:22:50;94158.00;;;8.18
15701;BMP180;7950;42.744;23.174;2023-11-21T08:25:21;94164.66;;;8.26
15701;BMP180;7950;42.744;23.174;2023-11-21T08:27:50;94155.34;;;8.35
15701;BMP180;7950;42.744;23.174;2023-11-21T08:30:19;94168.06;;;8.48
15701;BMP180;7950;42.744;23.174;2023-11-21T08:32:51;94160.34;;;8.58
15701;BMP180;7950;42.744;23.174;2023-11-21T08:35:21;94159.13;;;8.87
15701;BMP180;7950;42.744;23.174;2023-11-21T08:37:51;94154.59;;;9.04
15701;BMP180;7950;42.744;23.174;2023-11-21T08:40:22;94158.41;;;9.18
15701;BMP180;7950;42.744;23.174;2023-11-21T08:42:52;94148.47;;;9.20
15701;BMP180;7950;42.744;23.174;2023-11-21T08:45:22;94139.31;;;9.23
15701;BMP180;7950;42.744;23.174;2023-11-21T08:47:51;94148.66;;;9.40
15701;BMP180;7950;42.744;23.174;2023-11-21T08:50:19;94140.50;;;9.68
15701;BMP180;7950;42.744;23.174;2023-11-21T08:52:48;94136.50;;;9.92
15701;BMP180;7950;42.744;23.174;2023-11-21T08:55:18;94123.91;;;9.89
15701;BMP180;7950;42.744;23.174;2023-11-21T08:57:48;94125.00;;;9.98
15701;BMP180;7950;42.744;23.174;2023-11-21T09:00:18;94119.78;;;10.03
15701;BMP180;7950;42.744;23.174;2023-11-21T09:02:47;94115.25;;;9.94
15701;BMP180;7950;42.744;23.174;2023-11-21T09:05:15;94110.09;;;9.62
15701;BMP180;7950;42.744;23.174;2023-11-21T09:07:45;94094.63;;;9.29
15701;BMP180;7950;42.744;23.174;2023-11-21T09:10:16;94096.38;;;9.18
15701;BMP180;7950;42.744;23.174;2023-11-21T09:12:44;94094.19;;;9.06
15701;BMP180;7950;42.744;23.174;2023-11-21T09:15:15;94081.75;;;8.91
15701;BMP180;7950;42.744;23.174;2023-11-21T09:17:43;94065.13;;;8.75
15701;BMP180;7950;42.744;23.174;2023-11-21T09:20:12;94060.03;;;8.64
15701;BMP180;7950;42.744;23.174;2023-11-21T09:22:42;94059.91;;;8.54
15701;BMP180;7950;42.744;23.174;2023-11-21T09:25:12;94057.84;;;8.56
15701;BMP180;7950;42.744;23.174;2023-11-21T09:27:41;94046.00;;;8.75
15701;BMP180;7950;42.744;23.174;2023-11-21T09:30:11;94051.03;;;8.81
15701;BMP180;7950;42.744;23.174;2023-11-21T09:32:43;94055.72;;;9.06
15701;BMP180;7950;42.744;23.174;2023-11-21T09:35:13;94036.91;;;9.09
15701;BMP180;7950;42.744;23.174;2023-11-21T09:37:43;94026.91;;;9.33
15701;BMP180;7950;42.744;23.174;2023-11-21T09:40:22;94020.88;;;9.37
15701;BMP180;7950;42.744;23.174;2023-11-21T09:42:55;94011.53;;;9.46
15701;BMP180;7950;42.744;23.174;2023-11-21T09:45:28;93997.94;;;9.49
15701;BMP180;7950;42.744;23.174;2023-11-21T09:48:01;93989.28;;;9.49
15701;BMP180;7950;42.744;23.174;2023-11-21T09:50:30;93992.16;;;9.47
15701;BMP180;7950;42.744;23.174;2023-11-21T09:53:13;93998.00;;;9.59
15701;BMP180;7950;42.744;23.174;2023-11-21T09:55:43;93998.53;;;9.61
15701;BMP180;7950;42.744;23.174;2023-11-21T09:58:14;93997.47;;;9.57
15701;BMP180;7950;42.744;23.174;2023-11-21T10:00:44;94002.97;;;9.61
15701;BMP180;7950;42.744;23.174;2023-11-21T10:03:15;94000.59;;;9.59
15701;BMP180;7950;42.744;23.174;2023-11-21T10:05:45;93991.22;;;9.63
15701;BMP180;7950;42.744;23.174;2023-11-21T10:08:14;93984.41;;;9.62
15701;BMP180;7950;42.744;23.174;2023-11-21T10:10:45;93973.94;;;9.62
15701;BMP180;7950;42.744;23.174;2023-11-21T10:13:17;93973.47;;;9.75
15701;BMP180;7950;42.744;23.174;2023-11-21T10:15:50;93976.09;;;9.80
15701;BMP180;7950;42.744;23.174;2023-11-21T10:18:23;93956.69;;;9.76
15701;BMP180;7950;42.744;23.174;2023-11-21T10:20:55;93954.56;;;9.68
15701;BMP180;7950;42.744;23.174;2023-11-21T10:23:24;93957.66;;;9.60
15701;BMP180;7950;42.744;23.174;2023-11-21T10:25:53;93948.25;;;9.64
15701;BMP180;7950;42.744;23.174;2023-11-21T10:28:35;93954.06;;;9.71
15701;BMP180;7950;42.744;23.174;2023-11-21T10:31:07;93951.72;;;9.75
15701;BMP180;7950;42.744;23.174;2023-11-21T10:33:38;93958.34;;;9.87
15701;BMP180;7950;42.744;23.174;2023-11-21T10:36:07;93948.38;;;9.89
15701;BMP180;7950;42.744;23.174;2023-11-21T10:38:42;93939.47;;;9.90
15701;BMP180;7950;42.744;23.174;2023-11-21T10:41:13;93939.44;;;9.85
15701;BMP180;7950;42.744;23.174;2023-11-21T10:43:43;93933.94;;;9.77
15701;BMP180;7950;42.744;23.174;2023-11-21T10:46:14;93930.50;;;9.76
15701;BMP180;7950;42.744;23.174;2023-11-21T10:48:44;93938.84;;;9.68
15701;BMP180;7950;42.744;23.174;2023-11-21T10:51:14;93926.78;;;9.62
15701;BMP180;7950;42.744;23.174;2023-11-21T10:53:43;93928.34;;;9.58
15701;BMP180;7950;42.744;23.174;2023-11-21T10:56:14;93927.03;;;9.56
15701;BMP180;7950;42.744;23.174;2023-11-21T10:58:49;93919.41;;;9.49
15701;BMP180;7950;42.744;23.174;2023-11-21T11:01:19;93916.50;;;9.46
15701;BMP180;7950;42.744;23.174;2023-11-21T11:03:52;93913.59;;;9.42
15701;BMP180;7950;42.744;23.174;2023-11-21T11:06:23;93902.06;;;9.38
15701;BMP180;7950;42.744;23.174;2023-11-21T11:08:54;93894.25;;;9.43
15701;BMP180;7950;42.744;23.174;2023-11-21T11:11:25;93895.56;;;9.46
15701;BMP180;7950;42.744;23.174;2023-11-21T11:13:55;93895.78;;;9.39
15701;BMP180;7950;42.744;23.174;2023-11-21T11:16:28;93883.50;;;9.45
15701;BMP180;7950;42.744;23.174;2023-11-21T11:18:58;93886.94;;;9.50
15701;BMP180;7950;42.744;23.174;2023-11-21T11:21:42;93896.34;;;9.51
15701;BMP180;7950;42.744;23.174;2023-11-21T11:24:47;93881.69;;;9.50
15701;BMP180;7950;42.744;23.174;2023-11-21T11:27:30;93884.34;;;9.55
15701;BMP180;7950;42.744;23.174;2023-11-21T11:30:16;93878.84;;;9.57
15701;BMP180;7950;42.744;23.174;2023-11-21T11:32:54;93879.09;;;9.55
15701;BMP180;7950;42.744;23.174;2023-11-21T11:35:35;93886.94;;;9.55
15701;BMP180;7950;42.744;23.174;2023-11-21T11:38:07;93889.06;;;9.58
15701;BMP180;7950;42.744;23.174;2023-11-21T11:40:40;93902.44;;;9.62
15701;BMP180;7950;42.744;23.174;2023-11-21T11:43:09;93901.91;;;9.60
15701;BMP180;7950;42.744;23.174;2023-11-21T11:45:39;93904.53;;;9.65
15701;BMP180;7950;42.744;23.174;2023-11-21T11:48:11;93901.94;;;9.65
15701;BMP180;7950;42.744;23.174;2023-11-21T11:51:02;93894.88;;;9.65
15701;BMP180;7950;42.744;23.174;2023-11-21T11:53:40;93895.13;;;9.64
15701;BMP180;7950;42.744;23.174;2023-11-21T11:56:24;93903.75;;;9.64
15701;BMP180;7950;42.744;23.174;2023-11-21T11:58:55;93898.50;;;9.59
15701;BMP180;7950;42.744;23.174;2023-11-21T12:01:26;93892.72;;;9.52
15701;BMP180;7950;42.744;23.174;2023-11-21T12:04:23;93890.03;;;9.42
15701;BMP180;7950;42.744;23.174;2023-11-21T12:07:04;93888.44;;;9.36
15701;BMP180;7950;42.744;23.174;2023-11-21T12:09:34;93881.09;;;9.33
15701;BMP180;7950;42.744;23.174;2023-11-21T12:12:06;93886.06;;;9.30
15701;BMP180;7950;42.744;23.174;2023-11-21T12:14:37;93879.78;;;9.31
15701;BMP180;7950;42.744;23.174;2023-11-21T12:17:06;93883.69;;;9.28
15701;BMP180;7950;42.744;23.174;2023-11-21T12:19:36;93879.47;;;9.22
15701;BMP180;7950;42.744;23.174;2023-11-21T12:22:06;93862.22;;;9.26
15701;BMP180;7950;42.744;23.174;2023-11-21T12:24:35;93857.50;;;9.23
15701;BMP180;7950;42.744;23.174;2023-11-21T12:27:04;93853.81;;;9.19
15701;BMP180;7950;42.744;23.174;2023-11-21T12:29:33;93857.22;;;9.20
15701;BMP180;7950;42.744;23.174;2023-11-21T12:32:02;93857.97;;;9.10
15701;BMP180;7950;42.744;23.174;2023-11-21T12:34:31;93859.50;;;9.06
15701;BMP180;7950;42.744;23.174;2023-11-21T12:37:00;93848.75;;;9.02
15701;BMP180;7950;42.744;23.174;2023-11-21T12:39:30;93852.09;;;8.93
15701;BMP180;7950;42.744;23.174;2023-11-21T12:41:59;93839.25;;;8.86
15701;BMP180;7950;42.744;23.174;2023-11-21T12:44:27;93839.81;;;8.93
15701;BMP180;7950;42.744;23.174;2023-11-21T12:46:56;93839.81;;;8.88
15701;BMP180;7950;42.744;23.174;2023-11-21T12:49:25;93837.47;;;8.92
15701;BMP180;7950;42.744;23.174;2023-11-21T12:51:53;93837.47;;;8.92
15701;BMP180;7950;42.744;23.174;2023-11-21T12:54:22;93831.19;;;8.93
15701;BMP180;7950;42.744;23.174;2023-11-21T12:56:52;93822.28;;;8.94
15701;BMP180;7950;42.744;23.174;2023-11-21T12:59:22;93824.13;;;8.93
15701;BMP180;7950;42.744;23.174;2023-11-21T13:01:50;93840.31;;;8.90
15701;BMP180;7950;42.744;23.174;2023-11-21T13:04:19;93843.72;;;8.91
15701;BMP180;7950;42.744;23.174;2023-11-21T13:06:48;93827.50;;;8.89
15701;BMP180;7950;42.744;23.174;2023-11-21T13:09:17;93833.78;;;8.93
15701;BMP180;7950;42.744;23.174;2023-11-21T13:11:49;93826.19;;;8.91
15701;BMP180;7950;42.744;23.174;2023-11-21T13:14:20;93824.91;;;8.94
15701;BMP180;7950;42.744;23.174;2023-11-21T13:16:57;93833.28;;;8.91
15701;BMP180;7950;42.744;23.174;2023-11-21T13:19:25;93827.50;;;8.89
15701;BMP180;7950;42.744;23.174;2023-11-21T13:21:57;93819.41;;;8.90
15701;BMP180;7950;42.744;23.174;2023-11-21T13:24:29;93813.91;;;8.92
15701;BMP180;7950;42.744;23.174;2023-11-21T13:26:57;93801.91;;;8.96
15701;BMP180;7950;42.744;23.174;2023-11-21T13:29:27;93799.81;;;8.98
15701;BMP180;7950;42.744;23.174;2023-11-21T13:31:56;93795.34;;;8.93
15701;BMP180;7950;42.744;23.174;2023-11-21T13:34:26;93796.69;;;8.96
15701;BMP180;7950;42.744;23.174;2023-11-21T13:37:00;93791.19;;;8.98
15701;BMP180;7950;42.744;23.174;2023-11-21T13:39:31;93798.78;;;8.99
15701;BMP180;7950;42.744;23.174;2023-11-21T13:41:59;93792.97;;;8.87
15701;BMP180;7950;42.744;23.174;2023-11-21T13:44:32;93803.97;;;8.94
15701;BMP180;7950;42.744;23.174;2023-11-21T13:47:05;93799.28;;;8.91
15701;BMP180;7950;42.744;23.174;2023-11-21T13:49:34;93792.47;;;8.90
15701;BMP180;7950;42.744;23.174;2023-11-21T13:52:08;93785.16;;;8.92
15701;BMP180;7950;42.744;23.174;2023-11-21T13:54:42;93790.88;;;8.89
15701;BMP180;7950;42.744;23.174;2023-11-21T13:57:11;93786.66;;;8.83
15701;BMP180;7950;42.744;23.174;2023-11-21T13:59:42;93799.25;;;8.86
15701;BMP180;7950;42.744;23.174;2023-11-21T14:02:11;93802.38;;;8.88
15701;BMP180;7950;42.744;23.174;2023-11-21T14:04:45;93799.25;;;8.86
15701;BMP180;7950;42.744;23.174;2023-11-21T14:07:24;93801.31;;;8.84
15701;BMP180;7950;42.744;23.174;2023-11-21T14:10:04;93805.00;;;8.88
15701;BMP180;7950;42.744;23.174;2023-11-21T14:12:34;93816.00;;;8.90
15701;BMP180;7950;42.744;23.174;2023-11-21T14:15:09;93806.34;;;8.95
15701;BMP180;7950;42.744;23.174;2023-11-21T14:17:39;93810.50;;;8.91
15701;BMP180;7950;42.744;23.174;2023-11-21T14:20:10;93806.81;;;8.87
15701;BMP180;7950;42.744;23.174;2023-11-21T14:22:44;93812.56;;;8.84
15701;BMP180;7950;42.744;23.174;2023-11-21T14:25:15;93802.34;;;8.78
15701;BMP180;7950;42.744;23.174;2023-11-21T14:27:45;93797.38;;;8.81
15701;BMP180;7950;42.744;23.174;2023-11-21T14:30:15;93805.47;;;8.80
15701;BMP180;7950;42.744;23.174;2023-11-21T14:32:46;93803.09;;;8.78
15701;BMP180;7950;42.744;23.174;2023-11-21T14:35:16;93788.16;;;8.69
15701;BMP180;7950;42.744;23.174;2023-11-21T14:37:45;93799.38;;;8.64
15701;BMP180;7950;42.744;23.174;2023-11-21T14:40:14;93792.06;;;8.66